sensor_id;sensor_type;location;lat;lon;timestamp;temperature;humidity
1107;DHT22;540;49.448;8.612;2023-08-12T00:00:20;22.90;93.60
1107;DHT22;540;49.448;8.612;2023-08-12T00:02:48;22.90;93.90
1107;DHT22;540;49.448;8.612;2023-08-12T00:05:16;22.80;94.10
1107;DHT22;540;49.448;8.612;2023-08-12T00:07:44;22.80;94.30
1107;DHT22;540;49.448;8.612;2023-08-12T00:10:14;22.70;94.50
1107;DHT22;540;49.448;8.612;2023-08-12T00:12:42;22.70;94.80
1107;DHT22;540;49.448;8.612;2023-08-12T00:15:10;22.70;95.10
1107;DHT22;540;49.448;8.612;2023-08-12T00:17:38;22.70;95.20
1107;DHT22;540;49.448;8.612;2023-08-12T00:20:09;22.70;95.10
1107;DHT22;540;49.448;8.612;2023-08-12T00:22:39;22.80;95.30
1107;DHT22;540;49.448;8.612;2023-08-12T00:25:07;22.70;95.30
1107;DHT22;540;49.448;8.612;2023-08-12T00:27:37;23.00;95.50
1107;DHT22;540;49.448;8.612;2023-08-12T00:30:06;22.90;95.70
1107;DHT22;540;49.448;8.612;2023-08-12T00:32:34;22.80;95.50
1107;DHT22;540;49.448;8.612;2023-08-12T00:35:02;22.70;97.50
1107;DHT22;540;49.448;8.612;2023-08-12T00:37:30;22.70;99.90
1107;DHT22;540;49.448;8.612;2023-08-12T00:39:58;22.60;99.90
1107;DHT22;540;49.448;8.612;2023-08-12T00:42:26;22.50;99.90
1107;DHT22;540;49.448;8.612;2023-08-12T00:44:55;22.50;99.90
1107;DHT22;540;49.448;8.612;2023-08-12T00:47:23;22.40;99.90
1107;DHT22;540;49.448;8.612;2023-08-12T00:49:52;22.50;99.90
1107;DHT22;540;49.448;8.612;2023-08-12T00:52:19;22.50;99.90
1107;DHT22;540;49.448;8.612;2023-08-12T00:54:47;22.50;99.90
1107;DHT22;540;49.448;8.612;2023-08-12T00:57:15;22.50;99.90
1107;DHT22;540;49.448;8.612;2023-08-12T00:59:44;22.60;99.90
1107;DHT22;540;49.448;8.612;2023-08-12T01:02:13;22.60;99.90
1107;DHT22;540;49.448;8.612;2023-08-12T01:04:41;22.70;99.40
1107;DHT22;540;49.448;8.612;2023-08-12T01:07:09;22.60;99.00
1107;DHT22;540;49.448;8.612;2023-08-12T01:09:38;22.60;99.70
1107;DHT22;540;49.448;8.612;2023-08-12T01:12:11;22.60;99.60
1107;DHT22;540;49.448;8.612;2023-08-12T01:14:45;22.80;99.20
1107;DHT22;540;49.448;8.612;2023-08-12T01:17:17;22.70;98.80
1107;DHT22;540;49.448;8.612;2023-08-12T01:19:46;22.70;98.60
1107;DHT22;540;49.448;8.612;2023-08-12T01:22:16;22.70;98.30
1107;DHT22;540;49.448;8.612;2023-08-12T01:24:51;22.50;99.10
1107;DHT22;540;49.448;8.612;2023-08-12T01:27:19;22.60;99.90
1107;DHT22;540;49.448;8.612;2023-08-12T01:29:49;22.40;99.90
1107;DHT22;540;49.448;8.612;2023-08-12T01:32:23;22.30;99.90
1107;DHT22;540;49.448;8.612;2023-08-12T01:35:00;22.40;99.90
1107;DHT22;540;49.448;8.612;2023-08-12T01:37:29;22.20;99.90
1107;DHT22;540;49.448;8.612;2023-08-12T01:40:01;22.20;99.90
1107;DHT22;540;49.448;8.612;2023-08-12T01:42:32;22.30;99.90
1107;DHT22;540;49.448;8.612;2023-08-12T01:45:01;22.30;99.90
1107;DHT22;540;49.448;8.612;2023-08-12T01:47:29;22.30;99.90
1107;DHT22;540;49.448;8.612;2023-08-12T01:49:57;22.30;99.90
1107;DHT22;540;49.448;8.612;2023-08-12T01:52:25;22.30;99.90
1107;DHT22;540;49.448;8.612;2023-08-12T01:54:53;22.30;99.90
1107;DHT22;540;49.448;8.612;2023-08-12T01:57:22;22.30;99.90
1107;DHT22;540;49.448;8.612;2023-08-12T01:59:51;22.30;99.90
1107;DHT22;540;49.448;8.612;2023-08-12T02:02:19;22.30;99.90
1107;DHT22;540;49.448;8.612;2023-08-12T02:04:47;22.40;99.90
1107;DHT22;540;49.448;8.612;2023-08-12T02:07:15;22.40;99.90
1107;DHT22;540;49.448;8.612;2023-08-12T02:09:43;22.40;99.90
1107;DHT22;540;49.448;8.612;2023-08-12T02:12:10;22.50;99.90
1107;DHT22;540;49.448;8.612;2023-08-12T02:14:40;22.50;99.90
1107;DHT22;540;49.448;8.612;2023-08-12T02:17:07;22.50;99.90
1107;DHT22;540;49.448;8.612;2023-08-12T02:19:36;22.40;99.90
1107;DHT22;540;49.448;8.612;2023-08-12T02:22:04;22.40;99.90
1107;DHT22;540;49.448;8.612;2023-08-12T02:24:32;22.00;99.90
1107;DHT22;540;49.448;8.612;2023-08-12T02:27:00;22.50;99.90
1107;DHT22;540;49.448;8.612;2023-08-12T02:29:27;22.70;99.90
1107;DHT22;540;49.448;8.612;2023-08-12T02:31:57;22.40;99.90
1107;DHT22;540;49.448;8.612;2023-08-12T02:34:25;22.40;99.90
1107;DHT22;540;49.448;8.612;2023-08-12T02:36:52;22.30;99.90
1107;DHT22;540;49.448;8.612;2023-08-12T02:39:20;22.30;99.90
1107;DHT22;540;49.448;8.612;2023-08-12T02:41:48;22.30;99.90
1107;DHT22;540;49.448;8.612;2023-08-12T02:44:23;22.30;99.90
1107;DHT22;540;49.448;8.612;2023-08-12T02:46:51;22.20;99.90
1107;DHT22;540;49.448;8.612;2023-08-12T02:49:20;22.10;99.90
1107;DHT22;540;49.448;8.612;2023-08-12T02:51:48;21.70;99.90
1107;DHT22;540;49.448;8.612;2023-08-12T02:54:16;22.20;99.90
1107;DHT22;540;49.448;8.612;2023-08-12T02:56:44;22.00;99.90
1107;DHT22;540;49.448;8.612;2023-08-12T02:59:12;22.20;99.90
1107;DHT22;540;49.448;8.612;2023-08-12T03:01:40;22.20;99.90
1107;DHT22;540;49.448;8.612;2023-08-12T03:04:08;22.20;99.90
1107;DHT22;540;49.448;8.612;2023-08-12T03:06:37;21.80;99.90
1107;DHT22;540;49.448;8.612;2023-08-12T03:09:05;22.20;99.90
1107;DHT22;540;49.448;8.612;2023-08-12T03:11:33;22.20;99.90
1107;DHT22;540;49.448;8.612;2023-08-12T03:14:01;22.20;99.90
1107;DHT22;540;49.448;8.612;2023-08-12T03:16:29;22.20;99.90
1107;DHT22;540;49.448;8.612;2023-08-12T03:18:58;22.10;99.90
1107;DHT22;540;49.448;8.612;2023-08-12T03:21:26;22.00;99.90
1107;DHT22;540;49.448;8.612;2023-08-12T03:23:55;21.90;99.90
1107;DHT22;540;49.448;8.612;2023-08-12T03:26:23;21.90;99.90
1107;DHT22;540;49.448;8.612;2023-08-12T03:28:50;22.00;99.90
1107;DHT22;540;49.448;8.612;2023-08-12T03:31:18;22.10;99.90
1107;DHT22;540;49.448;8.612;2023-08-12T03:33:46;22.20;99.90
1107;DHT22;540;49.448;8.612;2023-08-12T03:36:14;22.20;99.90
1107;DHT22;540;49.448;8.612;2023-08-12T03:38:42;22.20;99.90
1107;DHT22;540;49.448;8.612;2023-08-12T03:41:11;22.20;99.90
1107;DHT22;540;49.448;8.612;2023-08-12T03:43:39;22.10;99.90
1107;DHT22;540;49.448;8.612;2023-08-12T03:46:07;22.00;99.90
1107;DHT22;540;49.448;8.612;2023-08-12T03:48:35;22.00;99.90
1107;DHT22;540;49.448;8.612;2023-08-12T03:51:03;22.00;99.90
1107;DHT22;540;49.448;8.612;2023-08-12T03:53:30;21.70;99.90
1107;DHT22;540;49.448;8.612;2023-08-12T03:55:58;21.50;99.90
1107;DHT22;540;49.448;8.612;2023-08-12T03:58:27;21.80;99.90
1107;DHT22;540;49.448;8.612;2023-08-12T04:00:55;21.80;99.90
1107;DHT22;540;49.448;8.612;2023-08-12T04:03:25;21.70;99.90
1107;DHT22;540;49.448;8.612;2023-08-12T04:05:53;21.80;99.90
1107;DHT22;540;49.448;8.612;2023-08-12T04:08:22;21.80;99.90
1107;DHT22;540;49.448;8.612;2023-08-12T04:10:50;21.70;99.90
1107;DHT22;540;49.448;8.612;2023-08-12T04:13:19;21.80;99.90
1107;DHT22;540;49.448;8.612;2023-08-12T04:15:50;21.90;99.90
1107;DHT22;540;49.448;8.612;2023-08-12T04:18:19;21.90;99.90
1107;DHT22;540;49.448;8.612;2023-08-12T04:20:49;21.90;99.90
1107;DHT22;540;49.448;8.612;2023-08-12T04:23:17;22.00;99.90
1107;DHT22;540;49.448;8.612;2023-08-12T04:25:46;21.80;99.90
1107;DHT22;540;49.448;8.612;2023-08-12T04:28:15;22.00;99.90
1107;DHT22;540;49.448;8.612;2023-08-12T04:30:43;22.10;99.90
1107;DHT22;540;49.448;8.612;2023-08-12T04:33:13;22.20;99.90
1107;DHT22;540;49.448;8.612;2023-08-12T04:35:41;22.20;99.90
1107;DHT22;540;49.448;8.612;2023-08-12T04:38:09;22.20;99.90
1107;DHT22;540;49.448;8.612;2023-08-12T04:40:38;22.30;99.90
1107;DHT22;540;49.448;8.612;2023-08-12T04:43:07;22.30;99.90
1107;DHT22;540;49.448;8.612;2023-08-12T04:45:35;22.40;99.90
1107;DHT22;540;49.448;8.612;2023-08-12T04:48:04;22.20;99.90
1107;DHT22;540;49.448;8.612;2023-08-12T04:50:33;22.60;99.90
1107;DHT22;540;49.448;8.612;2023-08-12T04:53:01;22.60;99.90
1107;DHT22;540;49.448;8.612;2023-08-12T04:55:29;22.50;99.90
1107;DHT22;540;49.448;8.612;2023-08-12T04:57:57;22.70;99.90
1107;DHT22;540;49.448;8.612;2023-08-12T05:00:25;22.80;99.90
1107;DHT22;540;49.448;8.612;2023-08-12T05:02:57;22.50;99.90
1107;DHT22;540;49.448;8.612;2023-08-12T05:05:26;22.80;99.90
1107;DHT22;540;49.448;8.612;2023-08-12T05:07:55;22.80;99.90
1107;DHT22;540;49.448;8.612;2023-08-12T05:10:23;22.80;99.90
1107;DHT22;540;49.448;8.612;2023-08-12T05:12:51;22.90;99.90
1107;DHT22;540;49.448;8.612;2023-08-12T05:15:21;23.00;99.90
1107;DHT22;540;49.448;8.612;2023-08-12T05:17:49;23.10;99.60
1107;DHT22;540;49.448;8.612;2023-08-12T05:20:17;23.10;99.10
1107;DHT22;540;49.448;8.612;2023-08-12T05:22:45;23.10;99.00
1107;DHT22;540;49.448;8.612;2023-08-12T05:25:14;23.20;98.80
1107;DHT22;540;49.448;8.612;2023-08-12T05:27:42;23.10;99.00
1107;DHT22;540;49.448;8.612;2023-08-12T05:30:11;23.00;99.60
1107;DHT22;540;49.448;8.612;2023-08-12T05:32:39;23.00;99.70
1107;DHT22;540;49.448;8.612;2023-08-12T05:35:08;23.00;99.80
1107;DHT22;540;49.448;8.612;2023-08-12T05:37:37;23.00;99.90
1107;DHT22;540;49.448;8.612;2023-08-12T05:40:05;23.10;99.90
1107;DHT22;540;49.448;8.612;2023-08-12T05:42:36;23.20;99.90
1107;DHT22;540;49.448;8.612;2023-08-12T05:45:05;23.00;99.90
1107;DHT22;540;49.448;8.612;2023-08-12T05:47:34;23.00;99.90
1107;DHT22;540;49.448;8.612;2023-08-12T05:50:03;23.00;99.90
1107;DHT22;540;49.448;8.612;2023-08-12T05:52:30;22.80;99.90
1107;DHT22;540;49.448;8.612;2023-08-12T05:54:58;22.80;99.90
1107;DHT22;540;49.448;8.612;2023-08-12T05:57:26;22.30;99.90
1107;DHT22;540;49.448;8.612;2023-08-12T05:59:56;22.80;99.90
1107;DHT22;540;49.448;8.612;2023-08-12T06:02:25;22.80;99.90
1107;DHT22;540;49.448;8.612;2023-08-12T06:04:53;22.80;99.90
1107;DHT22;540;49.448;8.612;2023-08-12T06:07:21;22.70;99.90
1107;DHT22;540;49.448;8.612;2023-08-12T06:09:50;22.80;99.90
1107;DHT22;540;49.448;8.612;2023-08-12T06:12:17;22.70;99.90
1107;DHT22;540;49.448;8.612;2023-08-12T06:14:45;22.80;99.90
1107;DHT22;540;49.448;8.612;2023-08-12T06:17:15;23.10;99.90
1107;DHT22;540;49.448;8.612;2023-08-12T06:19:42;23.20;99.90
1107;DHT22;540;49.448;8.612;2023-08-12T06:22:12;23.50;99.90
1107;DHT22;540;49.448;8.612;2023-08-12T06:24:40;23.70;99.90
1107;DHT22;540;49.448;8.612;2023-08-12T06:27:08;23.80;99.20
1107;DHT22;540;49.448;8.612;2023-08-12T06:29:36;23.80;99.20
1107;DHT22;540;49.448;8.612;2023-08-12T06:32:04;24.00;99.00
1107;DHT22;540;49.448;8.612;2023-08-12T06:34:33;24.10;98.10
1107;DHT22;540;49.448;8.612;2023-08-12T06:37:01;24.20;97.60
1107;DHT22;540;49.448;8.612;2023-08-12T06:39:29;24.00;97.60
1107;DHT22;540;49.448;8.612;2023-08-12T06:41:57;24.00;97.70
1107;DHT22;540;49.448;8.612;2023-08-12T06:44:25;24.20;97.00
1107;DHT22;540;49.448;8.612;2023-08-12T06:46:55;24.50;96.40
1107;DHT22;540;49.448;8.612;2023-08-12T06:49:23;25.60;93.50
1107;DHT22;540;49.448;8.612;2023-08-12T06:51:52;27.40;85.30
1107;DHT22;540;49.448;8.612;2023-08-12T06:54:20;28.70;75.50
1107;DHT22;540;49.448;8.612;2023-08-12T06:56:49;28.10;75.00
1107;DHT22;540;49.448;8.612;2023-08-12T06:59:17;27.40;77.50
1107;DHT22;540;49.448;8.612;2023-08-12T07:01:45;26.70;80.70
1107;DHT22;540;49.448;8.612;2023-08-12T07:04:13;26.30;83.80
1107;DHT22;540;49.448;8.612;2023-08-12T07:06:41;25.80;87.30
1107;DHT22;540;49.448;8.612;2023-08-12T07:09:10;25.30;90.50
1107;DHT22;540;49.448;8.612;2023-08-12T07:11:38;25.10;91.30
1107;DHT22;540;49.448;8.612;2023-08-12T07:14:06;25.10;91.80
1107;DHT22;540;49.448;8.612;2023-08-12T07:16:34;24.90;92.00
1107;DHT22;540;49.448;8.612;2023-08-12T07:19:02;25.00;92.20
1107;DHT22;540;49.448;8.612;2023-08-12T07:21:30;25.40;91.40
1107;DHT22;540;49.448;8.612;2023-08-12T07:23:58;25.90;89.60
1107;DHT22;540;49.448;8.612;2023-08-12T07:26:31;26.00;87.50
1107;DHT22;540;49.448;8.612;2023-08-12T07:28:59;25.80;88.20
1107;DHT22;540;49.448;8.612;2023-08-12T07:31:26;25.50;90.40
1107;DHT22;540;49.448;8.612;2023-08-12T07:33:54;25.20;90.20
1107;DHT22;540;49.448;8.612;2023-08-12T07:36:22;25.00;90.90
1107;DHT22;540;49.448;8.612;2023-08-12T07:38:50;24.90;90.90
1107;DHT22;540;49.448;8.612;2023-08-12T07:41:18;24.80;91.10
1107;DHT22;540;49.448;8.612;2023-08-12T07:43:48;24.80;91.30
1107;DHT22;540;49.448;8.612;2023-08-12T07:46:15;24.80;92.00
1107;DHT22;540;49.448;8.612;2023-08-12T07:48:44;24.80;92.40
1107;DHT22;540;49.448;8.612;2023-08-12T07:51:12;25.40;91.70
1107;DHT22;540;49.448;8.612;2023-08-12T07:53:39;26.30;86.90
1107;DHT22;540;49.448;8.612;2023-08-12T07:56:07;26.80;83.00
1107;DHT22;540;49.448;8.612;2023-08-12T07:58:36;26.80;82.20
1107;DHT22;540;49.448;8.612;2023-08-12T08:01:05;26.80;82.30
1107;DHT22;540;49.448;8.612;2023-08-12T08:03:36;28.40;77.20
1107;DHT22;540;49.448;8.612;2023-08-12T08:06:05;30.00;67.80
1107;DHT22;540;49.448;8.612;2023-08-12T08:08:34;30.90;62.00
1107;DHT22;540;49.448;8.612;2023-08-12T08:11:03;31.90;58.80
1107;DHT22;540;49.448;8.612;2023-08-12T08:13:32;33.00;55.60
1107;DHT22;540;49.448;8.612;2023-08-12T08:16:01;32.40;55.20
1107;DHT22;540;49.448;8.612;2023-08-12T08:18:32;32.70;55.30
1107;DHT22;540;49.448;8.612;2023-08-12T08:21:01;32.60;54.70
1107;DHT22;540;49.448;8.612;2023-08-12T08:23:32;32.20;55.10
1107;DHT22;540;49.448;8.612;2023-08-12T08:26:01;31.80;55.80
1107;DHT22;540;49.448;8.612;2023-08-12T08:28:30;31.20;56.80
1107;DHT22;540;49.448;8.612;2023-08-12T08:30:59;31.20;57.00
1107;DHT22;540;49.448;8.612;2023-08-12T08:33:28;31.10;57.30
1107;DHT22;540;49.448;8.612;2023-08-12T08:35:57;30.90;57.00
1107;DHT22;540;49.448;8.612;2023-08-12T08:38:25;30.30;58.20
1107;DHT22;540;49.448;8.612;2023-08-12T08:40:53;29.80;59.60
1107;DHT22;540;49.448;8.612;2023-08-12T08:43:21;30.50;58.90
1107;DHT22;540;49.448;8.612;2023-08-12T08:45:52;30.80;57.90
1107;DHT22;540;49.448;8.612;2023-08-12T08:48:20;30.60;58.60
1107;DHT22;540;49.448;8.612;2023-08-12T08:50:48;31.90;55.80
1107;DHT22;540;49.448;8.612;2023-08-12T08:53:20;32.50;54.40
1107;DHT22;540;49.448;8.612;2023-08-12T08:55:48;32.10;54.50
1107;DHT22;540;49.448;8.612;2023-08-12T08:58:16;32.00;54.90
1107;DHT22;540;49.448;8.612;2023-08-12T09:00:48;31.60;55.70
1107;DHT22;540;49.448;8.612;2023-08-12T09:03:17;30.90;57.00
1107;DHT22;540;49.448;8.612;2023-08-12T09:05:45;30.60;57.80
1107;DHT22;540;49.448;8.612;2023-08-12T09:08:13;30.10;59.10
1107;DHT22;540;49.448;8.612;2023-08-12T09:10:46;29.50;60.90
1107;DHT22;540;49.448;8.612;2023-08-12T09:13:14;29.30;62.90
1107;DHT22;540;49.448;8.612;2023-08-12T09:15:45;29.40;62.40
1107;DHT22;540;49.448;8.612;2023-08-12T09:18:12;29.70;62.30
1107;DHT22;540;49.448;8.612;2023-08-12T09:20:41;30.60;59.50
1107;DHT22;540;49.448;8.612;2023-08-12T09:23:10;31.90;56.50
1107;DHT22;540;49.448;8.612;2023-08-12T09:25:42;32.30;55.40
1107;DHT22;540;49.448;8.612;2023-08-12T09:28:12;32.90;53.80
1107;DHT22;540;49.448;8.612;2023-08-12T09:30:41;33.60;52.80
1107;DHT22;540;49.448;8.612;2023-08-12T09:33:09;33.50;51.10
1107;DHT22;540;49.448;8.612;2023-08-12T09:35:39;33.30;52.50
1107;DHT22;540;49.448;8.612;2023-08-12T09:38:12;33.30;52.50
1107;DHT22;540;49.448;8.612;2023-08-12T09:40:40;32.90;52.60
1107;DHT22;540;49.448;8.612;2023-08-12T09:43:09;32.10;52.40
1107;DHT22;540;49.448;8.612;2023-08-12T09:45:40;31.30;54.70
1107;DHT22;540;49.448;8.612;2023-08-12T09:48:09;31.80;54.60
1107;DHT22;540;49.448;8.612;2023-08-12T09:50:38;32.30;53.50
1107;DHT22;540;49.448;8.612;2023-08-12T09:53:09;32.40;53.40
1107;DHT22;540;49.448;8.612;2023-08-12T09:55:38;31.90;54.40
1107;DHT22;540;49.448;8.612;2023-08-12T09:58:06;31.20;55.90
1107;DHT22;540;49.448;8.612;2023-08-12T10:00:37;30.80;57.50
1107;DHT22;540;49.448;8.612;2023-08-12T10:03:11;30.50;58.10
1107;DHT22;540;49.448;8.612;2023-08-12T10:05:41;30.70;58.10
1107;DHT22;540;49.448;8.612;2023-08-12T10:08:09;31.80;56.40
1107;DHT22;540;49.448;8.612;2023-08-12T10:10:39;32.90;54.20
1107;DHT22;540;49.448;8.612;2023-08-12T10:13:09;33.70;52.10
1107;DHT22;540;49.448;8.612;2023-08-12T10:15:37;33.20;52.10
1107;DHT22;540;49.448;8.612;2023-08-12T10:18:05;33.00;52.20
1107;DHT22;540;49.448;8.612;2023-08-12T10:20:39;32.70;53.20
1107;DHT22;540;49.448;8.612;2023-08-12T10:23:08;31.90;54.90
1107;DHT22;540;49.448;8.612;2023-08-12T10:25:41;31.50;55.90
1107;DHT22;540;49.448;8.612;2023-08-12T10:28:11;31.20;57.10
1107;DHT22;540;49.448;8.612;2023-08-12T10:30:40;31.10;57.50
1107;DHT22;540;49.448;8.612;2023-08-12T10:33:10;31.40;57.10
1107;DHT22;540;49.448;8.612;2023-08-12T10:35:43;31.40;56.90
1107;DHT22;540;49.448;8.612;2023-08-12T10:38:13;31.20;57.60
1107;DHT22;540;49.448;8.612;2023-08-12T10:40:42;31.00;57.80
1107;DHT22;540;49.448;8.612;2023-08-12T10:43:11;30.80;58.40
1107;DHT22;540;49.448;8.612;2023-08-12T10:45:44;30.70;58.60
1107;DHT22;540;49.448;8.612;2023-08-12T10:48:18;31.10;58.50
1107;DHT22;540;49.448;8.612;2023-08-12T10:50:52;31.20;58.00
1107;DHT22;540;49.448;8.612;2023-08-12T10:53:24;31.20;57.70
1107;DHT22;540;49.448;8.612;2023-08-12T10:55:57;31.30;58.00
1107;DHT22;540;49.448;8.612;2023-08-12T10:58:27;32.10;56.90
1107;DHT22;540;49.448;8.612;2023-08-12T11:00:55;32.50;55.10
1107;DHT22;540;49.448;8.612;2023-08-12T11:03:24;32.80;54.10
1107;DHT22;540;49.448;8.612;2023-08-12T11:05:53;32.40;54.70
1107;DHT22;540;49.448;8.612;2023-08-12T11:08:26;31.90;56.00
1107;DHT22;540;49.448;8.612;2023-08-12T11:10:55;31.50;56.90
1107;DHT22;540;49.448;8.612;2023-08-12T11:13:27;31.20;57.70
1107;DHT22;540;49.448;8.612;2023-08-12T11:16:06;30.60;58.90
1107;DHT22;540;49.448;8.612;2023-08-12T11:18:34;30.00;60.60
1107;DHT22;540;49.448;8.612;2023-08-12T11:21:04;29.60;63.00
1107;DHT22;540;49.448;8.612;2023-08-12T11:23:33;29.10;67.80
1107;DHT22;540;49.448;8.612;2023-08-12T11:26:01;28.70;74.10
1107;DHT22;540;49.448;8.612;2023-08-12T11:28:30;28.10;80.80
1107;DHT22;540;49.448;8.612;2023-08-12T11:30:58;27.30;89.40
1107;DHT22;540;49.448;8.612;2023-08-12T11:33:26;26.80;93.00
1107;DHT22;540;49.448;8.612;2023-08-12T11:35:54;26.00;97.90
1107;DHT22;540;49.448;8.612;2023-08-12T11:38:24;25.60;99.90
1107;DHT22;540;49.448;8.612;2023-08-12T11:40:52;25.20;99.90
1107;DHT22;540;49.448;8.612;2023-08-12T11:43:21;24.90;99.90
1107;DHT22;540;49.448;8.612;2023-08-12T11:45:49;24.50;99.90
1107;DHT22;540;49.448;8.612;2023-08-12T11:48:17;24.40;99.90
1107;DHT22;540;49.448;8.612;2023-08-12T11:50:45;24.20;99.90
1107;DHT22;540;49.448;8.612;2023-08-12T11:53:14;24.10;99.90
1107;DHT22;540;49.448;8.612;2023-08-12T11:55:43;24.00;99.90
1107;DHT22;540;49.448;8.612;2023-08-12T11:58:13;23.90;99.90
1107;DHT22;540;49.448;8.612;2023-08-12T12:00:46;23.70;99.90
1107;DHT22;540;49.448;8.612;2023-08-12T12:03:16;23.50;99.90
1107;DHT22;540;49.448;8.612;2023-08-12T12:05:46;23.40;99.90
1107;DHT22;540;49.448;8.612;2023-08-12T12:08:14;23.40;99.90
1107;DHT22;540;49.448;8.612;2023-08-12T12:10:43;23.30;99.90
1107;DHT22;540;49.448;8.612;2023-08-12T12:13:11;23.30;99.90
1107;DHT22;540;49.448;8.612;2023-08-12T12:15:42;23.60;99.90
1107;DHT22;540;49.448;8.612;2023-08-12T12:18:11;23.70;99.90
1107;DHT22;540;49.448;8.612;2023-08-12T12:20:53;24.00;99.90
1107;DHT22;540;49.448;8.612;2023-08-12T12:23:21;24.20;99.90
1107;DHT22;540;49.448;8.612;2023-08-12T12:25:57;24.30;99.90
1107;DHT22;540;49.448;8.612;2023-08-12T12:28:25;24.50;99.90
1107;DHT22;540;49.448;8.612;2023-08-12T12:30:53;24.70;99.90
1107;DHT22;540;49.448;8.612;2023-08-12T12:33:21;25.20;99.90
1107;DHT22;540;49.448;8.612;2023-08-12T12:35:49;25.80;99.90
1107;DHT22;540;49.448;8.612;2023-08-12T12:38:25;26.10;99.90
1107;DHT22;540;49.448;8.612;2023-08-12T12:40:56;26.40;99.90
1107;DHT22;540;49.448;8.612;2023-08-12T12:43:24;26.70;99.90
1107;DHT22;540;49.448;8.612;2023-08-12T12:45:52;27.30;99.90
1107;DHT22;540;49.448;8.612;2023-08-12T12:48:20;27.40;98.40
1107;DHT22;540;49.448;8.612;2023-08-12T12:50:47;27.40;99.40
1107;DHT22;540;49.448;8.612;2023-08-12T12:53:15;27.60;98.80
1107;DHT22;540;49.448;8.612;2023-08-12T12:55:43;27.50;98.50
1107;DHT22;540;49.448;8.612;2023-08-12T12:58:12;27.20;98.40
1107;DHT22;540;49.448;8.612;2023-08-12T13:00:40;26.80;99.90
1107;DHT22;540;49.448;8.612;2023-08-12T13:03:08;26.60;99.90
1107;DHT22;540;49.448;8.612;2023-08-12T13:05:36;26.30;99.90
1107;DHT22;540;49.448;8.612;2023-08-12T13:08:05;26.20;99.90
1107;DHT22;540;49.448;8.612;2023-08-12T13:10:33;26.20;99.90
1107;DHT22;540;49.448;8.612;2023-08-12T13:13:01;26.10;99.90
1107;DHT22;540;49.448;8.612;2023-08-12T13:15:31;26.00;99.90
1107;DHT22;540;49.448;8.612;2023-08-12T13:18:01;25.90;99.90
1107;DHT22;540;49.448;8.612;2023-08-12T13:20:29;26.00;99.90
1107;DHT22;540;49.448;8.612;2023-08-12T13:22:57;26.10;99.90
1107;DHT22;540;49.448;8.612;2023-08-12T13:25:25;26.20;99.90
1107;DHT22;540;49.448;8.612;2023-08-12T13:27:53;26.20;99.90
1107;DHT22;540;49.448;8.612;2023-08-12T13:30:21;26.20;99.90
1107;DHT22;540;49.448;8.612;2023-08-12T13:32:50;26.40;99.90
1107;DHT22;540;49.448;8.612;2023-08-12T13:35:18;26.60;99.20
1107;DHT22;540;49.448;8.612;2023-08-12T13:37:46;26.60;98.30
1107;DHT22;540;49.448;8.612;2023-08-12T13:40:14;26.60;98.90
1107;DHT22;540;49.448;8.612;2023-08-12T13:42:42;26.70;98.30
1107;DHT22;540;49.448;8.612;2023-08-12T13:45:11;26.70;98.90
1107;DHT22;540;49.448;8.612;2023-08-12T13:47:39;26.60;99.30
1107;DHT22;540;49.448;8.612;2023-08-12T13:50:09;26.40;99.00
1107;DHT22;540;49.448;8.612;2023-08-12T13:52:37;26.20;99.90
1107;DHT22;540;49.448;8.612;2023-08-12T13:55:07;25.90;99.90
1107;DHT22;540;49.448;8.612;2023-08-12T13:57:35;25.60;99.90
1107;DHT22;540;49.448;8.612;2023-08-12T14:00:04;25.50;99.90
1107;DHT22;540;49.448;8.612;2023-08-12T14:02:36;25.40;99.90
1107;DHT22;540;49.448;8.612;2023-08-12T14:05:05;25.20;99.90
1107;DHT22;540;49.448;8.612;2023-08-12T14:07:34;25.30;99.90
1107;DHT22;540;49.448;8.612;2023-08-12T14:10:02;25.40;99.90
1107;DHT22;540;49.448;8.612;2023-08-12T14:12:30;25.50;99.90
1107;DHT22;540;49.448;8.612;2023-08-12T14:14:58;25.70;99.90
1107;DHT22;540;49.448;8.612;2023-08-12T14:17:26;26.00;99.90
1107;DHT22;540;49.448;8.612;2023-08-12T14:19:54;26.10;99.90
1107;DHT22;540;49.448;8.612;2023-08-12T14:22:22;26.20;99.90
1107;DHT22;540;49.448;8.612;2023-08-12T14:24:51;26.10;99.90
1107;DHT22;540;49.448;8.612;2023-08-12T14:27:20;25.90;99.90
1107;DHT22;540;49.448;8.612;2023-08-12T14:29:47;25.90;99.90
1107;DHT22;540;49.448;8.612;2023-08-12T14:32:15;25.70;99.90
1107;DHT22;540;49.448;8.612;2023-08-12T14:34:45;25.60;99.90
1107;DHT22;540;49.448;8.612;2023-08-12T14:37:13;25.60;99.90
1107;DHT22;540;49.448;8.612;2023-08-12T14:39:42;25.80;99.90
1107;DHT22;540;49.448;8.612;2023-08-12T14:42:11;25.80;99.90
1107;DHT22;540;49.448;8.612;2023-08-12T14:44:39;25.70;99.90
1107;DHT22;540;49.448;8.612;2023-08-12T14:47:07;25.50;99.90
1107;DHT22;540;49.448;8.612;2023-08-12T14:49:35;25.40;99.90
1107;DHT22;540;49.448;8.612;2023-08-12T14:52:03;25.40;99.90
1107;DHT22;540;49.448;8.612;2023-08-12T14:54:33;25.40;99.90
1107;DHT22;540;49.448;8.612;2023-08-12T14:57:01;25.40;99.90
1107;DHT22;540;49.448;8.612;2023-08-12T14:59:30;25.40;99.90
1107;DHT22;540;49.448;8.612;2023-08-12T15:01:58;25.50;99.90
1107;DHT22;540;49.448;8.612;2023-08-12T15:04:26;25.40;99.90
1107;DHT22;540;49.448;8.612;2023-08-12T15:06:54;25.20;99.90
1107;DHT22;540;49.448;8.612;2023-08-12T15:09:22;25.20;99.90
1107;DHT22;540;49.448;8.612;2023-08-12T15:11:50;25.20;99.90
1107;DHT22;540;49.448;8.612;2023-08-12T15:14:18;25.20;99.90
1107;DHT22;540;49.448;8.612;2023-08-12T15:16:47;25.10;99.90
1107;DHT22;540;49.448;8.612;2023-08-12T15:19:15;25.10;99.90
1107;DHT22;540;49.448;8.612;2023-08-12T15:21:43;25.20;99.90
1107;DHT22;540;49.448;8.612;2023-08-12T15:24:11;25.30;99.90
1107;DHT22;540;49.448;8.612;2023-08-12T15:26:39;25.30;99.90
1107;DHT22;540;49.448;8.612;2023-08-12T15:29:07;25.40;99.90
1107;DHT22;540;49.448;8.612;2023-08-12T15:31:36;25.60;99.90
1107;DHT22;540;49.448;8.612;2023-08-12T15:34:06;25.90;99.90
1107;DHT22;540;49.448;8.612;2023-08-12T15:36:34;26.10;99.90
1107;DHT22;540;49.448;8.612;2023-08-12T15:39:03;26.00;99.90
1107;DHT22;540;49.448;8.612;2023-08-12T15:41:31;26.20;99.90
1107;DHT22;540;49.448;8.612;2023-08-12T15:43:58;26.30;99.90
1107;DHT22;540;49.448;8.612;2023-08-12T15:46:26;26.50;99.90
1107;DHT22;540;49.448;8.612;2023-08-12T15:48:54;26.30;99.90
1107;DHT22;540;49.448;8.612;2023-08-12T15:51:24;26.20;99.90
1107;DHT22;540;49.448;8.612;2023-08-12T15:53:51;26.20;99.90
1107;DHT22;540;49.448;8.612;2023-08-12T15:56:20;26.20;99.90
1107;DHT22;540;49.448;8.612;2023-08-12T15:58:48;26.20;99.90
1107;DHT22;540;49.448;8.612;2023-08-12T16:01:17;26.20;99.90
1107;DHT22;540;49.448;8.612;2023-08-12T16:03:46;26.00;99.90
1107;DHT22;540;49.448;8.612;2023-08-12T16:06:14;25.90;99.90
1107;DHT22;540;49.448;8.612;2023-08-12T16:08:44;25.90;99.90
1107;DHT22;540;49.448;8.612;2023-08-12T16:11:26;25.90;99.90
1107;DHT22;540;49.448;8.612;2023-08-12T16:13:54;25.90;99.90
1107;DHT22;540;49.448;8.612;2023-08-12T16:16:22;25.90;99.90
1107;DHT22;540;49.448;8.612;2023-08-12T16:18:50;25.80;99.90
1107;DHT22;540;49.448;8.612;2023-08-12T16:21:18;25.80;99.90
1107;DHT22;540;49.448;8.612;2023-08-12T16:23:47;25.80;99.90
1107;DHT22;540;49.448;8.612;2023-08-12T16:26:15;25.80;99.90